createdAt,value
2022-08-28T00:00:38.120Z,50.30
2022-08-28T00:03:06.559Z,50.57
2022-08-28T00:05:36.051Z,50.30
2022-08-28T00:08:05.450Z,49.87
2022-08-28T00:10:33.617Z,50.13
2022-08-28T00:13:01.650Z,50.30
2022-08-28T00:15:33.301Z,50.50
2022-08-28T00:18:03.493Z,50.23
2022-08-28T00:20:32.615Z,50.37
2022-08-28T00:23:01.209Z,50.37
2022-08-28T00:25:31.615Z,50.37
2022-08-28T00:28:00.453Z,50.00
2022-08-28T00:30:36.251Z,50.23
2022-08-28T00:33:07.237Z,50.30
2022-08-28T00:35:35.203Z,50.30
2022-08-28T00:38:05.939Z,50.40
2022-08-28T00:40:36.406Z,50.23
2022-08-28T00:43:05.738Z,50.37
2022-08-28T00:45:39.525Z,49.73
2022-08-28T00:48:08.476Z,50.17
2022-08-28T00:50:51.205Z,49.77
2022-08-28T00:53:20.588Z,50.13
2022-08-28T00:55:52.682Z,50.47
2022-08-28T00:58:21.076Z,50.30
2022-08-28T01:00:49.817Z,50.47
2022-08-28T01:03:17.956Z,50.27
2022-08-28T01:05:47.908Z,50.00
2022-08-28T01:08:16.097Z,50.03
2022-08-28T01:10:51.046Z,50.00
2022-08-28T01:13:20.863Z,50.00
2022-08-28T01:15:49.280Z,50.07
2022-08-28T01:18:18.371Z,50.07
2022-08-28T01:20:52.305Z,50.07
2022-08-28T01:23:29.968Z,49.87
2022-08-28T01:26:00.173Z,49.93
2022-08-28T01:28:29.333Z,50.00
2022-08-28T01:30:59.183Z,49.70
2022-08-28T01:33:28.052Z,49.87
2022-08-28T01:35:56.270Z,49.93
2022-08-28T01:38:26.945Z,49.83
2022-08-28T01:40:57.141Z,49.80
2022-08-28T01:43:28.622Z,49.67
2022-08-28T01:46:00.020Z,49.80
2022-08-28T01:48:28.533Z,49.83
2022-08-28T01:50:56.962Z,49.77
2022-08-28T01:53:32.680Z,49.70
2022-08-28T01:56:04.529Z,49.90
2022-08-28T01:58:38.076Z,49.53
2022-08-28T02:01:09.532Z,49.47
2022-08-28T02:03:37.545Z,49.60
2022-08-28T02:06:05.768Z,49.47
2022-08-28T02:08:33.551Z,49.63
2022-08-28T02:11:01.385Z,49.80
2022-08-28T02:13:29.261Z,49.63
2022-08-28T02:15:59.683Z,49.57
2022-08-28T02:18:27.663Z,49.50
2022-08-28T02:20:55.512Z,48.97
2022-08-28T02:23:23.312Z,49.67
2022-08-28T02:25:51.260Z,49.87
2022-08-28T02:28:19.313Z,49.80
2022-08-28T02:30:47.164Z,49.40
2022-08-28T02:33:17.039Z,49.77
2022-08-28T02:35:44.988Z,49.37
2022-08-28T02:38:14.083Z,49.77
2022-08-28T02:40:42.152Z,49.23
2022-08-28T02:43:10.266Z,49.00
2022-08-28T02:45:38.306Z,49.33
2022-08-28T02:48:12.052Z,49.20
2022-08-28T02:50:47.060Z,49.33
2022-08-28T02:53:15.025Z,49.37
2022-08-28T02:55:42.849Z,49.60
2022-08-28T02:58:10.751Z,49.20
2022-08-28T03:00:38.603Z,49.40
2022-08-28T03:03:06.481Z,49.30
2022-08-28T03:05:34.313Z,49.27
2022-08-28T03:08:03.826Z,49.20
2022-08-28T03:10:31.992Z,49.47
2022-08-28T03:12:59.828Z,49.40
2022-08-28T03:15:27.670Z,49.50
2022-08-28T03:17:55.441Z,49.50
2022-08-28T03:20:23.783Z,49.30
2022-08-28T03:23:09.253Z,49.37
2022-08-28T03:25:38.463Z,49.17
2022-08-28T03:28:06.310Z,48.87
2022-08-28T03:30:34.202Z,49.33
2022-08-28T03:33:02.109Z,48.93
2022-08-28T03:35:30.222Z,49.23
2022-08-28T03:37:58.019Z,48.77
2022-08-28T03:40:25.842Z,49.03
2022-08-28T03:42:55.270Z,49.07
2022-08-28T03:45:23.607Z,49.10
2022-08-28T03:47:53.485Z,49.10
2022-08-28T03:50:21.388Z,48.73
2022-08-28T03:52:49.380Z,49.07
2022-08-28T03:55:18.760Z,49.00
2022-08-28T03:57:46.747Z,48.90
2022-08-28T04:00:16.885Z,48.80
2022-08-28T04:02:46.063Z,48.93
2022-08-28T04:05:14.920Z,49.00
2022-08-28T04:07:42.725Z,49.03
2022-08-28T04:10:12.067Z,48.63
2022-08-28T04:12:40.118Z,48.93
2022-08-28T04:15:09.291Z,48.90
2022-08-28T04:17:40.997Z,49.17
2022-08-28T04:20:10.821Z,48.80
2022-08-28T04:22:38.690Z,48.77
2022-08-28T04:25:08.263Z,48.67
2022-08-28T04:27:36.326Z,48.80
2022-08-28T04:30:04.865Z,49.20
2022-08-28T04:32:35.493Z,48.83
2022-08-28T04:35:06.524Z,48.77
2022-08-28T04:37:34.709Z,48.90
2022-08-28T04:40:02.752Z,48.90
2022-08-28T04:42:30.566Z,49.00
2022-08-28T04:44:59.902Z,48.77
2022-08-28T04:47:28.854Z,48.87
2022-08-28T04:49:56.783Z,48.77
2022-08-28T04:52:26.212Z,48.87
2022-08-28T04:54:54.105Z,48.73
2022-08-28T04:57:21.893Z,48.90
2022-08-28T04:59:49.684Z,48.77
2022-08-28T05:02:17.613Z,48.93
2022-08-28T05:04:47.224Z,49.07
2022-08-28T05:07:15.323Z,48.63
2022-08-28T05:09:44.462Z,48.83
2022-08-28T05:12:17.089Z,49.10
2022-08-28T05:14:45.650Z,48.77
2022-08-28T05:17:14.876Z,48.60
2022-08-28T05:19:43.612Z,48.97
2022-08-28T05:22:11.734Z,48.70
2022-08-28T05:24:40.300Z,49.00
2022-08-28T05:27:09.655Z,48.83
2022-08-28T05:29:37.597Z,48.60
2022-08-28T05:32:06.380Z,48.43
2022-08-28T05:34:34.376Z,48.73
2022-08-28T05:37:02.203Z,48.77
2022-08-28T05:39:30.094Z,48.97
2022-08-28T05:41:57.943Z,48.27
2022-08-28T05:44:27.163Z,48.80
2022-08-28T05:46:55.813Z,48.57
2022-08-28T05:49:23.738Z,49.07
2022-08-28T05:51:52.313Z,49.03
2022-08-28T05:54:20.341Z,48.70
2022-08-28T05:56:48.356Z,48.80
2022-08-28T05:59:16.772Z,49.03
2022-08-28T06:01:47.888Z,49.17
2022-08-28T06:04:18.138Z,49.40
2022-08-28T06:06:46.709Z,49.17
2022-08-28T06:09:16.037Z,48.73
2022-08-28T06:11:46.058Z,49.17
2022-08-28T06:14:16.555Z,49.30
2022-08-28T06:16:49.389Z,49.27
2022-08-28T06:19:17.877Z,49.07
2022-08-28T06:21:46.768Z,49.23
2022-08-28T06:24:15.018Z,49.13
2022-08-28T06:26:42.887Z,49.33
2022-08-28T06:29:13.021Z,49.23
2022-08-28T06:31:41.450Z,49.30
2022-08-28T06:34:10.833Z,49.50
2022-08-28T06:36:42.352Z,48.97
2022-08-28T06:39:12.460Z,49.30
2022-08-28T06:41:43.147Z,49.20
2022-08-28T06:44:12.395Z,49.07
2022-08-28T06:46:40.954Z,49.67
2022-08-28T06:49:10.271Z,49.63
2022-08-28T06:51:38.315Z,50.17
2022-08-28T06:54:06.477Z,49.70
2022-08-28T06:56:34.773Z,49.70
2022-08-28T06:59:02.854Z,49.77
2022-08-28T07:01:33.926Z,50.07
2022-08-28T07:04:03.893Z,49.93
2022-08-28T07:06:35.940Z,49.63
2022-08-28T07:09:05.164Z,49.87
2022-08-28T07:11:34.839Z,49.50
2022-08-28T07:14:03.164Z,50.23
2022-08-28T07:16:32.762Z,49.97
2022-08-28T07:19:03.612Z,50.53
2022-08-28T07:21:33.082Z,50.60
2022-08-28T07:24:06.786Z,50.90
2022-08-28T07:26:35.652Z,50.37
2022-08-28T07:29:10.138Z,50.27
2022-08-28T07:31:40.812Z,50.50
2022-08-28T07:34:09.396Z,50.90
2022-08-28T07:36:39.468Z,50.37
2022-08-28T07:39:08.292Z,50.70
2022-08-28T07:41:39.342Z,50.57
2022-08-28T07:44:25.317Z,50.60
2022-08-28T07:46:54.662Z,50.73
2022-08-28T07:49:23.428Z,50.73
2022-08-28T07:51:53.904Z,50.90
2022-08-28T07:54:23.017Z,51.47
2022-08-28T07:56:51.623Z,52.17
2022-08-28T07:59:20.459Z,52.80
2022-08-28T08:01:51.723Z,53.17
2022-08-28T08:04:21.679Z,53.00
2022-08-28T08:06:53.333Z,53.20
2022-08-28T08:09:27.153Z,52.90
2022-08-28T08:11:56.493Z,53.07
2022-08-28T08:14:25.296Z,53.67
2022-08-28T08:16:53.403Z,52.97
2022-08-28T08:19:21.410Z,53.07
2022-08-28T08:21:53.097Z,53.10
2022-08-28T08:24:25.661Z,53.50
2022-08-28T08:26:59.456Z,52.77
2022-08-28T08:29:31.153Z,52.50
2022-08-28T08:32:04.828Z,52.60
2022-08-28T08:38:33.480Z,52.77
2022-08-28T08:41:02.819Z,53.37
2022-08-28T08:43:44.028Z,53.10
2022-08-28T08:46:11.968Z,54.03
2022-08-28T08:48:43.602Z,53.67
2022-08-28T08:51:20.472Z,54.03
2022-08-28T08:53:55.554Z,53.03
2022-08-28T08:56:23.881Z,53.73
2022-08-28T08:59:05.280Z,53.27
2022-08-28T09:01:40.061Z,53.10
2022-08-28T09:04:22.546Z,52.57
2022-08-28T09:06:52.910Z,53.70
2022-08-28T09:09:28.889Z,53.60
2022-08-28T09:11:59.557Z,53.73
2022-08-28T09:14:38.586Z,53.63
2022-08-28T09:17:07.873Z,52.67
2022-08-28T09:19:36.330Z,54.33
2022-08-28T09:22:04.358Z,53.67
2022-08-28T09:24:36.455Z,53.77
2022-08-28T09:27:13.715Z,52.80
2022-08-28T09:29:52.124Z,53.03
2022-08-28T09:32:26.569Z,53.37
2022-08-28T09:35:05.930Z,53.97
2022-08-28T09:37:35.524Z,52.23
2022-08-28T09:40:23.529Z,54.00
2022-08-28T09:43:19.526Z,53.50
2022-08-28T09:45:55.930Z,54.37
2022-08-28T09:48:25.890Z,54.37
2022-08-28T09:50:59.104Z,54.10
2022-08-28T09:53:30.600Z,54.07
2022-08-28T09:56:11.488Z,54.23
2022-08-28T09:58:43.354Z,53.50
2022-08-28T10:01:35.636Z,54.17
2022-08-28T10:04:15.853Z,54.07
2022-08-28T10:06:51.346Z,53.60
2022-08-28T10:09:28.694Z,53.80
2022-08-28T10:12:05.706Z,53.60
2022-08-28T10:14:45.520Z,53.70
2022-08-28T10:17:26.201Z,54.27
2022-08-28T10:20:01.542Z,53.40
2022-08-28T10:22:40.804Z,53.80
2022-08-28T10:25:19.277Z,54.73
2022-08-28T10:28:01.121Z,54.70
2022-08-28T10:30:31.836Z,54.80
2022-08-28T10:33:16.629Z,54.40
2022-08-28T10:35:53.193Z,54.77
2022-08-28T10:38:28.268Z,55.07
2022-08-28T10:41:02.645Z,54.80
2022-08-28T10:43:34.961Z,55.17
2022-08-28T10:46:06.697Z,54.70
2022-08-28T10:48:43.542Z,54.87
2022-08-28T10:51:17.449Z,55.33
2022-08-28T10:53:48.493Z,55.47
2022-08-28T10:56:19.489Z,56.00
2022-08-28T10:58:50.365Z,55.43
2022-08-28T11:01:28.185Z,54.80
2022-08-28T11:04:00.827Z,55.27
2022-08-28T11:06:34.930Z,54.73
2022-08-28T11:09:22.345Z,55.40
2022-08-28T11:11:52.053Z,54.77
2022-08-28T11:14:30.739Z,55.10
2022-08-28T11:17:02.624Z,54.90
2022-08-28T11:19:53.285Z,54.87
2022-08-28T11:22:24.274Z,55.33
2022-08-28T11:25:04.448Z,55.70
2022-08-28T11:27:36.579Z,55.13
2022-08-28T11:30:32.566Z,56.43
2022-08-28T11:33:07.176Z,55.10
2022-08-28T11:35:51.683Z,55.60
2022-08-28T11:39:11.827Z,56.57
2022-08-28T11:41:41.363Z,55.23
2022-08-28T11:44:41.909Z,55.33
2022-08-28T11:47:36.951Z,54.67
2022-08-28T11:50:14.036Z,54.90
2022-08-28T11:53:17.664Z,54.07
2022-08-28T11:56:05.755Z,54.43
2022-08-28T11:58:43.674Z,54.37
2022-08-28T12:01:14.129Z,54.90
2022-08-28T12:03:44.578Z,54.70
2022-08-28T12:06:13.232Z,54.63
2022-08-28T12:09:11.458Z,54.83
2022-08-28T12:11:54.997Z,54.00
2022-08-28T12:14:58.240Z,54.33
2022-08-28T12:17:31.461Z,54.20
2022-08-28T12:20:08.948Z,54.57
2022-08-28T12:22:46.140Z,54.10
2022-08-28T12:25:25.210Z,53.90
2022-08-28T12:27:56.009Z,54.50
2022-08-28T12:30:34.043Z,54.43
2022-08-28T12:33:12.140Z,54.30
2022-08-28T12:35:40.278Z,54.63
2022-08-28T12:38:09.273Z,54.80
2022-08-28T12:40:50.456Z,54.13
2022-08-28T12:43:35.625Z,54.23
2022-08-28T12:46:19.285Z,54.40
2022-08-28T12:48:52.828Z,54.50
2022-08-28T12:51:24.233Z,53.77
2022-08-28T12:53:55.101Z,54.30
2022-08-28T12:56:25.317Z,54.10
2022-08-28T12:58:54.625Z,54.50
2022-08-28T13:01:29.174Z,54.30
2022-08-28T13:04:00.400Z,54.43
2022-08-28T13:06:30.364Z,54.97
2022-08-28T13:09:02.423Z,54.93
2022-08-28T13:11:34.946Z,54.17
2022-08-28T13:14:05.052Z,54.60
2022-08-28T13:16:39.230Z,54.43
2022-08-28T13:19:25.862Z,55.23
2022-08-28T13:22:00.192Z,54.33
2022-08-28T13:24:38.400Z,54.27
2022-08-28T13:27:24.105Z,55.37
2022-08-28T13:30:00.608Z,54.80
2022-08-28T13:32:32.166Z,55.97
2022-08-28T13:35:30.480Z,54.90
2022-08-28T13:38:06.958Z,55.03
2022-08-28T13:40:59.076Z,54.37
2022-08-28T13:43:33.289Z,54.77
2022-08-28T13:46:02.536Z,55.70
2022-08-28T13:48:37.654Z,55.03
2022-08-28T13:51:12.031Z,55.93
2022-08-28T13:53:49.710Z,55.40
2022-08-28T13:56:22.349Z,54.80
2022-08-28T13:58:57.424Z,54.67
2022-08-28T14:01:44.565Z,54.97
2022-08-28T14:04:14.605Z,54.57
2022-08-28T14:06:44.247Z,54.93
2022-08-28T14:09:15.160Z,53.97
2022-08-28T14:11:51.844Z,54.93
2022-08-28T14:14:21.140Z,54.60
2022-08-28T14:16:53.613Z,54.50
2022-08-28T14:19:21.681Z,54.13
2022-08-28T14:21:49.669Z,54.73
2022-08-28T14:24:18.307Z,54.03
2022-08-28T14:26:47.296Z,54.37
2022-08-28T14:29:18.864Z,54.57
2022-08-28T14:31:47.373Z,54.07
2022-08-28T14:34:19.237Z,54.80
2022-08-28T14:36:50.721Z,54.60
2022-08-28T14:39:26.461Z,54.57
2022-08-28T14:41:55.659Z,54.17
2022-08-28T14:44:29.435Z,54.30
2022-08-28T14:47:02.297Z,54.77
2022-08-28T14:49:33.570Z,54.27
2022-08-28T14:52:09.509Z,54.17
2022-08-28T14:54:41.647Z,54.00
2022-08-28T14:57:12.400Z,54.13
2022-08-28T14:59:42.316Z,53.53
2022-08-28T15:02:12.254Z,53.67
2022-08-28T15:04:45.832Z,53.47
2022-08-28T15:07:17.888Z,53.30
2022-08-28T15:09:49.748Z,54.57
2022-08-28T15:12:18.041Z,53.33
2022-08-28T15:14:54.585Z,54.20
2022-08-28T15:17:34.381Z,53.50
2022-08-28T15:20:05.571Z,54.00
2022-08-28T15:22:33.368Z,55.53
2022-08-28T15:25:01.208Z,56.20
2022-08-28T15:27:29.053Z,56.50
2022-08-28T15:29:56.910Z,56.97
2022-08-28T15:32:24.770Z,56.80
2022-08-28T15:34:53.317Z,56.67
2022-08-28T15:37:22.528Z,56.77
2022-08-28T15:40:08.059Z,56.50
2022-08-28T15:42:35.873Z,56.57
2022-08-28T15:45:03.816Z,57.67
2022-08-28T15:47:31.683Z,57.40
2022-08-28T15:49:59.514Z,58.43
2022-08-28T15:52:28.653Z,59.10
2022-08-28T15:54:56.408Z,58.40
2022-08-28T15:57:24.278Z,57.60
2022-08-28T15:59:52.132Z,58.17
2022-08-28T16:02:22.530Z,58.20
2022-08-28T16:04:50.671Z,57.37
2022-08-28T16:07:19.419Z,56.37
2022-08-28T16:09:48.667Z,57.93
2022-08-28T16:12:16.491Z,57.20
2022-08-28T16:14:44.315Z,56.87
2022-08-28T16:17:12.711Z,57.63
2022-08-28T16:19:41.136Z,57.70
2022-08-28T16:22:09.320Z,57.90
2022-08-28T16:24:37.767Z,56.77
2022-08-28T16:27:09.655Z,56.50
2022-08-28T16:29:39.104Z,56.67
2022-08-28T16:32:07.723Z,56.67
2022-08-28T16:34:37.034Z,57.00
2022-08-28T16:37:05.605Z,56.50
2022-08-28T16:39:35.700Z,56.73
2022-08-28T16:42:03.587Z,56.43
2022-08-28T16:44:32.933Z,56.50
2022-08-28T16:47:00.781Z,56.90
2022-08-28T16:49:28.594Z,55.60
2022-08-28T16:51:56.404Z,56.63
2022-08-28T16:54:24.257Z,56.90
2022-08-28T16:56:52.120Z,56.97
2022-08-28T16:59:23.294Z,57.00
2022-08-28T17:01:53.859Z,56.80
2022-08-28T17:04:22.987Z,56.80
2022-08-28T17:06:51.069Z,57.10
2022-08-28T17:09:20.963Z,56.43
2022-08-28T17:11:51.688Z,56.83
2022-08-28T17:14:20.470Z,57.20
2022-08-28T17:16:48.795Z,56.47
2022-08-28T17:19:18.633Z,56.87
2022-08-28T17:22:04.119Z,56.40
2022-08-28T17:24:32.010Z,56.83
2022-08-28T17:27:05.232Z,56.03
2022-08-28T17:29:33.736Z,56.47
2022-08-28T17:32:01.875Z,56.77
2022-08-28T17:34:31.075Z,56.47
2022-08-28T17:36:58.990Z,56.23
2022-08-28T17:39:27.014Z,56.37
2022-08-28T17:41:54.834Z,56.63
2022-08-28T17:44:23.120Z,56.10
2022-08-28T17:46:52.480Z,56.20
2022-08-28T17:49:22.238Z,56.33
2022-08-28T17:51:51.967Z,56.27
2022-08-28T17:54:22.550Z,56.80
2022-08-28T17:56:51.238Z,56.50
2022-08-28T17:59:20.750Z,56.80
2022-08-28T18:01:49.784Z,56.90
2022-08-28T18:04:24.155Z,55.77
2022-08-28T18:06:54.699Z,56.70
2022-08-28T18:09:23.297Z,56.50
2022-08-28T18:11:51.415Z,56.60
2022-08-28T18:14:19.296Z,56.47
2022-08-28T18:16:47.307Z,55.97
2022-08-28T18:19:16.182Z,55.87
2022-08-28T18:21:44.051Z,56.53
2022-08-28T18:24:13.938Z,56.47
2022-08-28T18:26:43.304Z,56.50
2022-08-28T18:29:11.442Z,55.87
2022-08-28T18:31:39.316Z,56.10
2022-08-28T18:34:08.502Z,56.17
2022-08-28T18:36:39.429Z,56.37
2022-08-28T18:39:07.466Z,56.30
2022-08-28T18:41:44.054Z,56.17
2022-08-28T18:44:13.885Z,55.83
2022-08-28T18:46:42.534Z,56.67
2022-08-28T18:49:10.898Z,56.37
2022-08-28T18:51:38.814Z,56.00
2022-08-28T18:54:06.676Z,56.10
2022-08-28T18:56:37.649Z,56.17
2022-08-28T18:59:06.377Z,55.60
2022-08-28T19:01:34.459Z,56.43
2022-08-28T19:04:02.492Z,55.87
2022-08-28T19:06:30.404Z,56.57
2022-08-28T19:08:58.308Z,55.80
2022-08-28T19:11:26.436Z,56.07
2022-08-28T19:13:55.554Z,55.90
2022-08-28T19:16:23.494Z,55.70
2022-08-28T19:18:53.482Z,56.23
2022-08-28T19:21:21.617Z,55.87
2022-08-28T19:23:56.059Z,56.43
2022-08-28T19:26:24.436Z,56.47
2022-08-28T19:28:52.549Z,56.37
2022-08-28T19:31:22.418Z,55.83
2022-08-28T19:33:50.570Z,55.30
2022-08-28T19:36:19.251Z,55.93
2022-08-28T19:38:47.217Z,55.10
2022-08-28T19:41:15.138Z,55.40
2022-08-28T19:43:44.654Z,55.60
2022-08-28T19:46:19.557Z,55.80
2022-08-28T19:48:50.525Z,55.83
2022-08-28T19:51:23.339Z,55.70
2022-08-28T19:53:57.145Z,55.73
2022-08-28T19:56:27.682Z,55.27
2022-08-28T19:58:57.337Z,55.93
2022-08-28T20:01:25.261Z,56.03
2022-08-28T20:03:54.410Z,55.20
2022-08-28T20:06:22.180Z,55.90
2022-08-28T20:08:50.666Z,55.40
2022-08-28T20:11:24.615Z,55.73
2022-08-28T20:13:52.969Z,55.40
2022-08-28T20:16:21.353Z,56.17
2022-08-28T20:18:50.198Z,56.03
2022-08-28T20:21:28.811Z,56.27
2022-08-28T20:24:06.293Z,55.07
2022-08-28T20:26:34.122Z,55.70
2022-08-28T20:29:01.981Z,55.77
2022-08-28T20:31:29.854Z,55.80
2022-08-28T20:33:57.778Z,55.70
2022-08-28T20:36:27.123Z,56.13
2022-08-28T20:38:55.295Z,55.50
2022-08-28T20:41:23.651Z,56.50
2022-08-28T20:43:51.560Z,56.13
2022-08-28T20:46:19.697Z,56.20
2022-08-28T20:48:47.653Z,55.50
2022-08-28T20:51:15.486Z,55.57
2022-08-28T20:53:45.432Z,55.37
2022-08-28T20:56:13.326Z,56.40
2022-08-28T20:58:41.175Z,55.97
2022-08-28T21:01:09.040Z,55.70
2022-08-28T21:03:36.886Z,55.50
2022-08-28T21:06:04.952Z,55.77
2022-08-28T21:08:32.806Z,55.47
2022-08-28T21:11:01.900Z,55.07
2022-08-28T21:13:29.749Z,55.40
2022-08-28T21:15:57.593Z,55.17
2022-08-28T21:18:25.504Z,55.93
2022-08-28T21:20:55.612Z,55.47
2022-08-28T21:23:24.380Z,55.57
2022-08-28T21:25:52.199Z,55.67
2022-08-28T21:28:21.388Z,55.40
2022-08-28T21:30:49.194Z,55.63
2022-08-28T21:33:17.050Z,55.63
2022-08-28T21:35:46.230Z,55.33
2022-08-28T21:38:14.189Z,55.43
2022-08-28T21:40:42.433Z,55.27
2022-08-28T21:43:10.304Z,54.13
2022-08-28T21:45:39.552Z,55.30
2022-08-28T21:48:07.961Z,55.53
2022-08-28T21:50:35.798Z,54.77
2022-08-28T21:53:03.681Z,55.70
2022-08-28T21:55:31.508Z,55.47
2022-08-28T21:57:59.301Z,54.90
2022-08-28T22:00:27.173Z,55.20
2022-08-28T22:02:56.400Z,54.80
2022-08-28T22:05:24.412Z,55.00
2022-08-28T22:07:52.322Z,55.57
2022-08-28T22:10:20.111Z,55.33
2022-08-28T22:12:47.887Z,55.10
2022-08-28T22:15:15.822Z,55.37
2022-08-28T22:17:43.681Z,55.50
2022-08-28T22:20:13.098Z,55.20
2022-08-28T22:22:58.461Z,54.63
2022-08-28T22:25:26.447Z,55.13
2022-08-28T22:27:54.293Z,54.87
2022-08-28T22:30:22.655Z,55.47
2022-08-28T22:32:52.009Z,55.27
2022-08-28T22:35:21.349Z,55.00
2022-08-28T22:37:49.506Z,55.40
2022-08-28T22:40:17.394Z,55.07
2022-08-28T22:42:45.278Z,55.20
2022-08-28T22:45:13.500Z,55.30
2022-08-28T22:47:41.356Z,55.80
2022-08-28T22:50:09.571Z,55.47
2022-08-28T22:52:39.736Z,55.40
2022-08-28T22:55:10.414Z,55.23
2022-08-28T22:57:40.207Z,55.40
2022-08-28T23:00:11.214Z,55.70
2022-08-28T23:02:39.765Z,55.10
2022-08-28T23:05:08.877Z,55.20
2022-08-28T23:07:38.281Z,55.30
2022-08-28T23:10:06.950Z,55.07
2022-08-28T23:12:35.395Z,55.43
2022-08-28T23:15:06.097Z,55.07
2022-08-28T23:17:33.933Z,55.50
2022-08-28T23:20:01.768Z,55.10
2022-08-28T23:22:29.609Z,54.73
2022-08-28T23:24:58.721Z,55.00
2022-08-28T23:27:36.315Z,54.87
2022-08-28T23:30:07.962Z,55.30
2022-08-28T23:32:35.870Z,55.07
2022-08-28T23:35:07.110Z,55.00
2022-08-28T23:37:36.237Z,55.37
2022-08-28T23:40:08.104Z,55.43
2022-08-28T23:42:36.106Z,54.77
2022-08-28T23:45:05.317Z,55.37
2022-08-28T23:47:33.373Z,54.93
2022-08-28T23:50:01.259Z,55.10
2022-08-28T23:52:29.058Z,54.30
2022-08-28T23:54:56.872Z,54.10
2022-08-28T23:57:26.092Z,54.03
2022-08-28T23:59:54.090Z,55.30
